Time;durP1;ratioP1;P1;durP2;ratioP2;P2;SDS_P1;SDS_P2;PMS_P1;PMS_P2;Temp;Humidity;BMP_temperature;BMP_pressure;BME280_temperature;BME280_humidity;BME280_pressure;Samples;Min_cycle;Max_cycle;Signal;HPM_P1;HPM_P2
2022/05/29 00:00:10;;;;;;;7.70;2.30;;;;;;;9.06;100.00;99025.12;104931;1271;60481;-66
2022/05/29 00:03:04;;;;;;;7.80;2.30;;;;;;;9.08;100.00;99021.58;104743;1274;62429;-67
2022/05/29 00:05:51;;;;;;;7.60;2.40;;;;;;;9.10;99.87;99027.30;104897;1271;74583;-66
2022/05/29 00:08:42;;;;;;;8.20;2.00;;;;;;;9.12;99.81;99030.08;104999;1271;68611;-69
2022/05/29 00:11:29;;;;;;;7.20;2.10;;;;;;;9.11;99.74;99026.42;104947;1271;72782;-68
2022/05/29 00:14:15;;;;;;;8.00;2.10;;;;;;;9.17;99.41;99026.13;104993;1271;59666;-69
2022/05/29 00:17:03;;;;;;;8.00;2.10;;;;;;;9.18;99.53;99021.55;105010;1271;62152;-69
2022/05/29 00:19:52;;;;;;;8.50;2.10;;;;;;;9.20;99.10;99024.63;104730;1275;73002;-69
2022/05/29 00:22:40;;;;;;;7.30;2.30;;;;;;;9.22;99.35;99025.17;104858;1271;69435;-66
2022/05/29 00:25:28;;;;;;;7.50;2.60;;;;;;;9.21;99.48;99021.51;104872;1274;74412;-67
2022/05/29 00:28:15;;;;;;;7.20;2.40;;;;;;;9.20;99.27;99018.60;105075;1271;61377;-70
2022/05/29 00:31:02;;;;;;;8.60;2.30;;;;;;;9.19;99.08;99018.48;104903;1274;62088;-67
2022/05/29 00:33:49;;;;;;;9.10;2.70;;;;;;;9.18;99.21;99019.86;104848;1271;72887;-66
2022/05/29 00:36:39;;;;;;;7.20;2.10;;;;;;;9.16;99.49;99018.77;104903;1271;68669;-66
2022/05/29 00:39:26;;;;;;;7.90;2.40;;;;;;;9.14;99.39;99019.11;104805;1271;73332;-66
2022/05/29 00:42:15;;;;;;;7.50;2.30;;;;;;;9.13;99.67;99018.16;104783;1271;59843;-66
2022/05/29 00:45:02;;;;;;;8.70;2.40;;;;;;;9.13;99.55;99018.31;105065;1271;59654;-67
2022/05/29 00:47:50;;;;;;;7.30;2.00;;;;;;;9.15;99.68;99015.89;104946;1272;73563;-66
2022/05/29 00:50:37;;;;;;;6.90;2.10;;;;;;;9.16;99.61;99017.91;104935;1271;67633;-66
2022/05/29 00:53:24;;;;;;;7.50;2.40;;;;;;;9.18;99.69;99019.85;105035;1271;74509;-67
2022/05/29 00:56:12;;;;;;;6.60;1.90;;;;;;;9.19;99.58;99023.29;104841;1271;59644;-66
2022/05/29 00:59:01;;;;;;;8.10;2.30;;;;;;;9.19;99.42;99020.48;104783;1271;60552;-65
2022/05/29 01:01:50;;;;;;;7.20;1.80;;;;;;;9.18;99.80;99026.03;105058;1271;72478;-66
2022/05/29 01:04:40;;;;;;;9.00;2.60;;;;;;;9.16;99.75;99027.10;104917;1274;67909;-66
2022/05/29 01:07:29;;;;;;;8.10;2.50;;;;;;;9.14;99.68;99034.68;104860;1271;71364;-65
2022/05/29 01:10:15;;;;;;;5.40;1.90;;;;;;;9.13;99.49;99031.63;104916;1271;60734;-67
2022/05/29 01:13:17;;;;;;;7.40;1.90;;;;;;;9.11;99.49;99034.73;104866;1271;59704;-64
2022/05/29 01:16:35;;;;;;;5.60;2.00;;;;;;;9.09;99.24;99037.95;104838;1271;73707;-67
2022/05/29 01:19:57;;;;;;;6.20;1.70;;;;;;;9.09;98.95;99038.68;104940;1271;68416;-66
2022/05/29 01:23:22;;;;;;;6.40;2.10;;;;;;;9.08;99.03;99039.66;104922;1274;74228;-68
2022/05/29 01:26:50;;;;;;;5.90;1.60;;;;;;;9.07;99.14;99044.04;104938;1271;59695;-66
2022/05/29 01:30:01;;;;;;;5.80;1.90;;;;;;;9.03;99.09;99045.40;104960;1271;60349;-67
2022/05/29 01:33:21;;;;;;;5.50;1.70;;;;;;;9.00;98.92;99044.95;104964;1271;74793;-66
2022/05/29 01:36:39;;;;;;;5.70;2.00;;;;;;;8.97;98.92;99041.85;105084;1271;69599;-63
2022/05/29 01:39:37;;;;;;;8.00;2.10;;;;;;;8.91;99.21;99037.97;104867;1271;73616;-68
2022/05/29 01:42:45;;;;;;;6.20;2.00;;;;;;;8.91;99.36;99048.54;104772;1274;60682;-65
2022/05/29 01:45:59;;;;;;;6.90;2.00;;;;;;;8.89;99.58;99050.73;105168;1271;59541;-66
2022/05/29 01:49:14;;;;;;;6.00;1.90;;;;;;;8.87;99.78;99053.31;104792;1271;73585;-66
2022/05/29 01:52:20;;;;;;;7.20;2.10;;;;;;;8.87;99.78;99051.95;104990;1274;69321;-67
2022/05/29 01:56:00;;;;;;;8.30;2.20;;;;;;;8.87;99.91;99054.55;105033;1271;71384;-66
2022/05/29 01:58:57;;;;;;;5.80;1.60;;;;;;;8.90;99.71;99056.13;104898;1271;60264;-64
2022/05/29 02:02:14;;;;;;;7.70;1.80;;;;;;;8.88;99.52;99058.18;104927;1271;60978;-66
2022/05/29 02:05:11;;;;;;;7.20;1.70;;;;;;;8.89;99.42;99059.02;104861;1272;73527;-64
2022/05/29 02:08:24;;;;;;;5.80;1.90;;;;;;;8.88;99.30;99062.27;104921;1271;68077;-66
2022/05/29 02:11:24;;;;;;;6.10;2.00;;;;;;;8.88;99.61;99061.94;104953;1271;73230;-65
2022/05/29 02:14:20;;;;;;;6.40;2.10;;;;;;;8.87;99.62;99059.89;104774;1271;59692;-65
2022/05/29 02:17:16;;;;;;;6.30;2.20;;;;;;;8.88;99.61;99058.08;104987;1271;61958;-65
2022/05/29 02:20:13;;;;;;;6.60;2.30;;;;;;;8.89;99.57;99061.17;104775;1271;73634;-68
2022/05/29 02:23:41;;;;;;;8.20;2.10;;;;;;;8.91;99.53;99061.88;104857;1274;70150;-66
2022/05/29 02:26:37;;;;;;;7.60;2.10;;;;;;;8.93;99.60;99062.57;105014;1271;72467;-66
2022/05/29 02:29:24;;;;;;;5.10;1.50;;;;;;;8.96;99.88;99063.20;105114;1271;60101;-66
2022/05/29 02:32:51;;;;;;;8.90;2.00;;;;;;;8.97;99.74;99066.47;105054;1271;60411;-66
2022/05/29 02:35:52;;;;;;;5.90;1.80;;;;;;;8.99;99.74;99065.02;104460;1277;72137;-67
2022/05/29 02:39:14;;;;;;;7.70;1.90;;;;;;;9.03;99.73;99071.07;104530;1277;69579;-67
2022/05/29 02:42:27;;;;;;;7.30;1.90;;;;;;;9.09;99.78;99070.23;104310;1277;73294;-66
2022/05/29 02:45:43;;;;;;;5.50;1.80;;;;;;;9.11;99.44;99073.36;104254;1277;59997;-66
2022/05/29 02:49:11;;;;;;;7.00;1.90;;;;;;;9.14;99.59;99074.52;104401;1279;59751;-66
2022/05/29 02:52:21;;;;;;;5.40;2.00;;;;;;;9.16;99.29;99076.80;104584;1277;73603;-67
2022/05/29 02:55:08;;;;;;;5.90;1.90;;;;;;;9.18;99.33;99078.19;104419;1277;69628;-66
2022/05/29 02:58:01;;;;;;;7.30;2.30;;;;;;;9.19;99.18;99080.61;104528;1277;73229;-67
2022/05/29 03:01:10;;;;;;;7.90;2.90;;;;;;;9.20;99.10;99083.34;104710;1277;59877;-66
2022/05/29 03:04:15;;;;;;;7.30;2.60;;;;;;;9.24;99.44;99086.92;104750;1277;60512;-66
2022/05/29 03:07:37;;;;;;;6.20;2.10;;;;;;;9.25;99.32;99084.17;104525;1277;73608;-65
2022/05/29 03:10:41;;;;;;;7.10;2.00;;;;;;;9.27;99.05;99085.65;104380;1277;69806;-66
2022/05/29 03:13:56;;;;;;;7.30;2.40;;;;;;;9.29;99.10;99089.13;104629;1274;73370;-65
2022/05/29 03:16:49;;;;;;;7.20;2.20;;;;;;;9.33;98.69;99092.80;104924;1273;61548;-70
2022/05/29 03:19:56;;;;;;;5.70;2.10;;;;;;;9.37;98.47;99095.55;105137;1271;60318;-67
2022/05/29 03:23:10;;;;;;;5.50;2.00;;;;;;;9.42;98.42;99096.91;106087;1274;74644;-67
2022/05/29 03:26:03;;;;;;;5.90;2.00;;;;;;;9.46;97.93;99100.36;106328;1271;69600;-66
2022/05/29 03:29:05;;;;;;;6.60;2.10;;;;;;;9.48;97.64;99102.15;106442;1271;70697;-67
2022/05/29 03:31:52;;;;;;;5.70;2.10;;;;;;;9.53;97.74;99104.20;105641;1271;60702;-65
2022/05/29 03:34:39;;;;;;;6.20;2.20;;;;;;;9.59;97.29;99099.30;104850;1271;60921;-65
2022/05/29 03:37:25;;;;;;;7.00;2.20;;;;;;;9.66;97.33;99101.08;105153;1271;74989;-69
2022/05/29 03:40:13;;;;;;;7.00;2.30;;;;;;;9.75;96.97;99109.55;105075;1271;68438;-64
2022/05/29 03:43:00;;;;;;;6.00;2.20;;;;;;;9.80;96.44;99108.17;104641;1272;74687;-66
2022/05/29 03:45:47;;;;;;;5.70;2.10;;;;;;;9.87;96.04;99110.42;104693;1271;61310;-66
2022/05/29 03:48:34;;;;;;;5.80;2.10;;;;;;;9.91;95.76;99113.27;105029;1271;59457;-67
2022/05/29 03:51:20;;;;;;;7.10;2.70;;;;;;;9.97;95.57;99112.55;104865;1271;74751;-66
2022/05/29 03:54:09;;;;;;;6.90;2.50;;;;;;;10.04;95.27;99115.44;104838;1271;68804;-66
2022/05/29 03:56:55;;;;;;;6.00;2.50;;;;;;;10.11;95.65;99119.59;104867;1271;73192;-67
2022/05/29 03:59:45;;;;;;;7.20;2.30;;;;;;;10.17;95.06;99120.15;104901;1271;59804;-65
2022/05/29 04:02:32;;;;;;;7.60;2.60;;;;;;;10.18;94.68;99119.70;104850;1271;59566;-65
2022/05/29 04:05:23;;;;;;;7.70;2.70;;;;;;;10.19;94.29;99123.45;104962;1271;74736;-65
2022/05/29 04:14:22;;;;;;;7.60;2.90;;;;;;;10.28;94.05;99127.44;104831;1271;59762;-66
2022/05/29 04:17:12;;;;;;;6.50;2.50;;;;;;;10.33;94.06;99134.13;104862;1271;62006;-67
2022/05/29 04:19:58;;;;;;;7.50;2.70;;;;;;;10.36;93.95;99138.15;104875;1271;72515;-66
2022/05/29 04:22:45;;;;;;;5.90;2.60;;;;;;;10.35;93.32;99136.05;104961;1271;67081;-66
2022/05/29 04:25:32;;;;;;;6.90;2.80;;;;;;;10.32;93.67;99139.13;104863;1271;74459;-62
2022/05/29 04:28:19;;;;;;;7.80;2.70;;;;;;;10.32;93.57;99142.18;104995;1271;59767;-66
2022/05/29 04:31:05;;;;;;;9.20;3.20;;;;;;;10.30;93.18;99146.80;104972;1271;61637;-67
2022/05/29 04:33:52;;;;;;;7.50;2.60;;;;;;;10.28;93.24;99150.17;104891;1271;74640;-67
2022/05/29 04:36:38;;;;;;;7.00;2.60;;;;;;;10.27;93.44;99148.30;104767;1271;69374;-64
2022/05/29 04:39:25;;;;;;;8.40;3.40;;;;;;;10.27;93.28;99144.95;105050;1271;72486;-65
2022/05/29 04:42:12;;;;;;;8.80;2.80;;;;;;;10.28;93.53;99145.23;105032;1271;59688;-67
2022/05/29 04:44:59;;;;;;;8.90;2.70;;;;;;;10.26;93.20;99144.54;105147;1274;60474;-67
2022/05/29 04:47:45;;;;;;;7.30;2.70;;;;;;;10.27;93.12;99146.40;104706;1271;75039;-66
2022/05/29 04:50:32;;;;;;;7.70;2.80;;;;;;;10.24;93.27;99149.98;104885;1271;68397;-66
2022/05/29 04:53:18;;;;;;;9.70;2.80;;;;;;;10.22;94.11;99154.41;104842;1271;75004;-64
2022/05/29 04:56:05;;;;;;;8.20;2.90;;;;;;;10.20;94.03;99152.45;104892;1271;59842;-67
2022/05/29 04:58:51;;;;;;;6.90;2.90;;;;;;;10.20;94.55;99157.77;104917;1271;60917;-66
2022/05/29 05:01:38;;;;;;;9.20;2.90;;;;;;;10.19;94.92;99158.58;104893;1271;73612;-66
2022/05/29 05:04:26;;;;;;;7.60;2.90;;;;;;;10.16;95.03;99163.83;104984;1271;69660;-67
2022/05/29 05:07:13;;;;;;;8.00;2.80;;;;;;;10.13;95.12;99164.64;104810;1271;73827;-66
2022/05/29 05:09:59;;;;;;;7.00;2.70;;;;;;;10.12;95.58;99166.33;104850;1271;60104;-66
2022/05/29 05:12:46;;;;;;;7.80;2.70;;;;;;;10.15;95.89;99166.77;104818;1271;59621;-65
2022/05/29 05:15:33;;;;;;;8.20;2.90;;;;;;;10.16;95.91;99166.11;104733;1271;339404;-63
2022/05/29 05:18:19;;;;;;;7.00;2.70;;;;;;;10.10;96.08;99159.00;104876;1271;69533;-65
2022/05/29 05:21:09;;;;;;;9.10;3.10;;;;;;;10.15;96.11;99169.20;105153;1271;74276;-67
2022/05/29 05:23:55;;;;;;;8.70;3.00;;;;;;;10.11;96.19;99170.50;104858;1271;59810;-66
2022/05/29 05:26:43;;;;;;;7.80;3.30;;;;;;;10.08;96.43;99173.04;104818;1271;61091;-67
2022/05/29 05:29:30;;;;;;;7.30;2.80;;;;;;;10.09;97.06;99170.66;104985;1271;73905;-65
2022/05/29 05:32:16;;;;;;;8.10;3.10;;;;;;;10.12;97.41;99173.08;105007;1271;68881;-64
2022/05/29 05:35:07;;;;;;;11.00;4.00;;;;;;;10.17;97.14;99177.16;104873;1271;72311;-64
2022/05/29 05:37:53;;;;;;;8.70;3.60;;;;;;;10.25;96.89;99176.52;104918;1271;61242;-67
2022/05/29 05:40:40;;;;;;;9.70;3.40;;;;;;;10.32;97.07;99179.57;105064;1271;60368;-64
2022/05/29 05:43:27;;;;;;;8.70;4.00;;;;;;;10.38;96.80;99182.41;104900;1271;75076;-64
2022/05/29 05:46:17;;;;;;;17.30;9.70;;;;;;;10.45;96.68;99181.48;104903;1271;68778;-66
2022/05/29 05:49:03;;;;;;;7.80;3.60;;;;;;;10.58;97.10;99178.02;104872;1271;74127;-65
2022/05/29 05:51:51;;;;;;;8.70;3.20;;;;;;;10.70;95.85;99184.30;105049;1271;59820;-63
2022/05/29 05:54:37;;;;;;;13.60;8.20;;;;;;;10.79;95.38;99187.41;104951;1271;59807;-64
2022/05/29 05:57:24;;;;;;;11.40;5.60;;;;;;;10.83;95.20;99185.23;104997;1271;74653;-64
2022/05/29 06:00:15;;;;;;;12.30;4.80;;;;;;;10.95;94.41;99189.67;104855;1271;67351;-63
2022/05/29 06:03:01;;;;;;;8.20;4.10;;;;;;;11.25;94.08;99193.58;104752;1271;73514;-65
2022/05/29 06:05:48;;;;;;;11.50;4.20;;;;;;;11.69;92.70;99197.95;104831;1271;59551;-67
2022/05/29 06:08:35;;;;;;;8.70;3.20;;;;;;;12.10;91.84;99191.69;104911;1271;59627;-68
2022/05/29 06:11:24;;;;;;;11.20;6.10;;;;;;;12.53;89.26;99194.91;104839;1271;74579;-65
2022/05/29 06:14:11;;;;;;;7.90;3.00;;;;;;;12.95;87.15;99195.55;104776;1271;68342;-65
2022/05/29 06:16:58;;;;;;;9.30;3.60;;;;;;;13.47;84.73;99194.62;104694;1271;74815;-64
2022/05/29 06:19:44;;;;;;;7.10;2.50;;;;;;;13.90;81.93;99191.17;104859;1271;61199;-64
2022/05/29 06:22:40;;;;;;;9.20;3.20;;;;;;;14.21;80.47;99191.33;104888;1271;61391;-64
2022/05/29 06:25:29;;;;;;;7.20;2.70;;;;;;;14.24;80.97;99192.42;104862;1271;73998;-69
2022/05/29 06:28:18;;;;;;;8.00;2.90;;;;;;;14.32;79.22;99183.12;104783;1271;67387;-66
2022/05/29 06:31:11;;;;;;;9.70;3.30;;;;;;;14.40;77.88;99185.20;104918;1271;73517;-70
2022/05/29 06:33:58;;;;;;;9.60;4.00;;;;;;;14.25;76.91;99191.02;104725;1273;59664;-71
2022/05/29 06:36:44;;;;;;;8.40;3.00;;;;;;;14.02;77.59;99194.62;104909;1271;62061;-68
2022/05/29 06:39:31;;;;;;;8.10;2.60;;;;;;;13.79;78.23;99197.91;104952;1271;72956;-68
2022/05/29 06:42:18;;;;;;;7.50;2.40;;;;;;;13.50;77.94;99202.63;104909;1271;66750;-65
2022/05/29 06:45:06;;;;;;;10.00;2.90;;;;;;;13.26;78.80;99205.10;104786;1271;74283;-67
2022/05/29 06:47:53;;;;;;;8.90;2.80;;;;;;;13.14;80.18;99213.45;104820;1271;59774;-66
2022/05/29 06:50:39;;;;;;;7.20;2.90;;;;;;;13.10;80.64;99210.81;105134;1271;59670;-66
2022/05/29 06:53:26;;;;;;;7.90;2.80;;;;;;;13.08;80.95;99213.67;104996;1271;73523;-70
2022/05/29 06:56:12;;;;;;;11.10;3.50;;;;;;;13.04;81.02;99206.59;104943;1271;67237;-68
2022/05/29 06:59:01;;;;;;;8.90;3.10;;;;;;;13.10;80.99;99212.59;105061;1271;72856;-66
2022/05/29 07:08:01;;;;;;;8.60;3.10;;;;;;;13.52;78.97;99217.41;104927;1271;73715;-65
2022/05/29 07:10:47;;;;;;;8.80;2.80;;;;;;;13.66;78.04;99218.29;104845;1271;69461;-65
2022/05/29 07:13:35;;;;;;;9.20;3.20;;;;;;;13.70;78.01;99223.75;104991;1271;72556;-67
2022/05/29 07:16:21;;;;;;;7.40;3.00;;;;;;;13.78;77.88;99224.55;104970;1271;59790;-66
2022/05/29 07:19:08;;;;;;;7.90;2.70;;;;;;;13.77;78.01;99228.36;104821;1271;62069;-65
2022/05/29 07:21:57;;;;;;;8.90;3.30;;;;;;;13.69;77.93;99230.80;104856;1271;71476;-65
2022/05/29 07:24:44;;;;;;;10.90;3.10;;;;;;;13.78;77.28;99232.77;104717;1274;69619;-68
2022/05/29 07:27:30;;;;;;;11.10;3.20;;;;;;;14.32;75.20;99237.60;104958;1271;74413;-66
2022/05/29 07:30:18;;;;;;;8.50;3.20;;;;;;;14.38;73.68;99240.13;104877;1271;61285;-66
2022/05/29 07:33:05;;;;;;;12.00;2.90;;;;;;;14.50;74.58;99241.09;105105;1271;62139;-66
2022/05/29 07:35:52;;;;;;;10.20;2.60;;;;;;;14.94;73.57;99240.95;104903;1271;73809;-67
2022/05/29 07:38:40;;;;;;;11.30;2.90;;;;;;;15.53;70.98;99241.67;104869;1271;69609;-67
2022/05/29 07:44:31;;;;;;;9.00;2.60;;;;;;;15.65;67.87;99240.30;104979;1270;59664;-66
2022/05/29 07:47:27;;;;;;;7.20;2.50;;;;;;;15.31;68.63;99246.09;105074;1274;59631;-69
2022/05/29 07:50:20;;;;;;;8.60;2.90;;;;;;;15.02;69.40;99243.84;104880;1271;74803;-64
2022/05/29 07:53:07;;;;;;;10.40;3.30;;;;;;;14.82;70.17;99244.42;105018;1271;69592;-64
2022/05/29 07:55:54;;;;;;;7.40;2.70;;;;;;;14.70;70.90;99242.66;104919;1271;73383;-61
2022/05/29 07:58:42;;;;;;;8.00;3.10;;;;;;;14.62;71.27;99243.73;104837;1271;59721;-62
2022/05/29 08:01:29;;;;;;;9.60;3.10;;;;;;;14.55;71.92;99244.94;104863;1271;61234;-61
2022/05/29 08:04:16;;;;;;;9.40;2.80;;;;;;;14.40;70.83;99248.40;104858;1271;72556;-62
2022/05/29 08:07:03;;;;;;;8.90;3.40;;;;;;;14.19;71.20;99253.20;104878;1271;69661;-64
2022/05/29 08:09:50;;;;;;;8.50;3.40;;;;;;;14.13;71.84;99251.71;104930;1271;74616;-61
2022/05/29 08:12:37;;;;;;;8.30;2.80;;;;;;;15.00;70.72;99253.71;104818;1271;60271;-62
2022/05/29 08:15:24;;;;;;;7.80;2.60;;;;;;;17.12;63.44;99242.46;104893;1271;60808;-61
2022/05/29 08:18:12;;;;;;;7.80;2.70;;;;;;;19.17;57.84;99238.14;104907;1271;73993;-61
2022/05/29 08:20:58;;;;;;;10.70;2.60;;;;;;;20.12;52.88;99239.59;104802;1271;69514;-64
2022/05/29 08:33:25;;;;;;;9.40;2.40;;;;;;;18.77;51.95;99250.70;105081;1271;74638;-61
2022/05/29 08:36:22;;;;;;;7.90;2.10;;;;;;;18.52;52.86;99251.47;104964;1271;68827;-62
2022/05/29 08:39:08;;;;;;;7.80;2.20;;;;;;;18.41;52.77;99257.48;104767;1274;72541;-63
2022/05/29 08:41:58;;;;;;;9.00;2.20;;;;;;;18.13;52.01;99266.85;104905;1271;59687;-61
2022/05/29 08:44:51;;;;;;;8.20;2.10;;;;;;;17.75;52.44;99263.41;104967;1271;62099;-65
2022/05/29 08:47:38;;;;;;;8.20;2.40;;;;;;;17.44;53.65;99264.34;104766;1271;74616;-63
2022/05/29 08:50:43;;;;;;;6.30;1.90;;;;;;;17.31;55.44;99265.90;104990;1271;68451;-63
2022/05/29 08:53:58;;;;;;;9.30;2.10;;;;;;;17.33;55.74;99270.32;105008;1271;73348;-62
2022/05/29 08:57:02;;;;;;;8.90;2.70;;;;;;;17.64;56.21;99265.57;104784;1271;59768;-62
2022/05/29 08:59:57;;;;;;;7.90;2.10;;;;;;;17.75;53.72;99268.45;104843;1271;60515;-63
2022/05/29 09:02:56;;;;;;;6.70;1.90;;;;;;;17.72;53.45;99271.31;104958;1271;73828;-64
2022/05/29 09:05:48;;;;;;;7.70;2.20;;;;;;;17.75;53.71;99271.35;104894;1271;68642;-62
2022/05/29 09:09:03;;;;;;;7.60;2.10;;;;;;;17.79;53.15;99270.98;104895;1271;73580;-65
2022/05/29 09:11:55;;;;;;;7.60;2.20;;;;;;;18.03;53.94;99271.58;104900;1271;59673;-62
2022/05/29 09:14:56;;;;;;;7.40;2.00;;;;;;;18.77;52.59;99269.61;105029;1271;61131;-62
2022/05/29 09:17:58;;;;;;;7.60;2.20;;;;;;;19.93;50.60;99274.04;104892;1271;73921;-65
2022/05/29 09:20:49;;;;;;;6.70;1.80;;;;;;;21.14;46.12;99270.45;104693;1274;68760;-65
2022/05/29 09:24:06;;;;;;;6.80;1.80;;;;;;;21.51;44.93;99265.82;104727;1273;72451;-63
2022/05/29 09:26:53;;;;;;;7.20;2.00;;;;;;;21.82;43.52;99270.91;105082;1273;59660;-63
2022/05/29 09:29:39;;;;;;;6.40;2.00;;;;;;;22.53;41.70;99265.26;104880;1271;59732;-65
2022/05/29 09:32:30;;;;;;;6.70;1.70;;;;;;;23.89;39.00;99258.02;104841;1271;72938;-64
2022/05/29 09:35:40;;;;;;;6.60;2.30;;;;;;;24.34;36.32;99259.63;104860;1271;68697;-62
2022/05/29 09:38:31;;;;;;;5.60;1.60;;;;;;;25.61;34.57;99256.02;104881;1271;73371;-64
2022/05/29 09:41:43;;;;;;;6.30;1.60;;;;;;;26.55;32.64;99256.04;104761;1271;59750;-66
2022/05/29 09:44:30;;;;;;;7.50;1.60;;;;;;;27.23;32.24;99249.16;104847;1271;60596;-66
2022/05/29 09:50:57;;;;;;;6.50;1.50;;;;;;;27.38;31.11;99247.23;104831;1271;69403;-65
2022/05/29 09:53:53;;;;;;;6.30;1.50;;;;;;;26.52;31.84;99251.30;105067;1271;72388;-62
2022/05/29 09:56:40;;;;;;;6.10;1.40;;;;;;;25.24;33.06;99252.98;105010;1271;59795;-62
2022/05/29 09:59:26;;;;;;;5.70;1.70;;;;;;;24.57;34.12;99261.55;104829;1271;60916;-60
2022/05/29 10:02:36;;;;;;;6.40;1.30;;;;;;;24.57;34.13;99265.86;104784;1271;74714;-62
2022/05/29 10:05:36;;;;;;;6.10;1.30;;;;;;;24.38;34.55;99264.61;104661;1274;68566;-63
2022/05/29 10:08:31;;;;;;;7.30;1.80;;;;;;;25.01;33.82;99258.28;104764;1271;74276;-62
2022/05/29 10:11:30;;;;;;;6.80;1.60;;;;;;;25.04;32.84;99255.73;104772;1271;60488;-60
2022/05/29 10:14:42;;;;;;;6.10;1.50;;;;;;;25.07;32.42;99257.27;104836;1274;61067;-60
2022/05/29 10:17:29;;;;;;;5.70;1.20;;;;;;;25.34;32.78;99249.33;104836;1271;72350;-63
2022/05/29 10:20:38;;;;;;;5.70;1.40;;;;;;;25.66;32.15;99249.83;104843;1271;69511;-62
2022/05/29 10:23:36;;;;;;;6.00;1.60;;;;;;;25.04;33.20;99257.77;105040;1270;73077;-63
2022/05/29 10:26:34;;;;;;;6.10;1.50;;;;;;;24.32;32.71;99267.55;105075;1271;59739;-64
2022/05/29 10:29:29;;;;;;;5.90;1.40;;;;;;;23.46;34.13;99270.17;104873;1271;62169;-61
2022/05/29 10:32:38;;;;;;;5.80;1.60;;;;;;;22.94;36.35;99269.77;105014;1270;72538;-61
2022/05/29 10:35:32;;;;;;;7.10;1.50;;;;;;;22.76;36.48;99282.25;104880;1271;65914;-62
2022/05/29 10:38:18;;;;;;;6.40;1.60;;;;;;;22.04;39.59;99289.80;104698;1271;74394;-62
2022/05/29 10:41:07;;;;;;;6.00;1.50;;;;;;;21.26;42.41;99284.64;105085;1271;60317;-61
2022/05/29 10:43:54;;;;;;;6.40;1.50;;;;;;;20.51;45.54;99287.61;105163;1271;61032;-61
2022/05/29 10:46:55;;;;;;;8.50;1.90;;;;;;;19.82;47.54;99290.89;104766;1271;75113;-64
2022/05/29 10:50:15;;;;;;;5.90;2.00;;;;;;;19.18;49.48;99286.39;104764;1271;69353;-61
2022/05/29 10:53:42;;;;;;;8.70;1.70;;;;;;;18.68;51.68;99288.00;105112;1271;73494;-62
2022/05/29 10:57:03;;;;;;;5.90;1.80;;;;;;;18.93;51.90;99288.70;105186;1271;59650;-63
2022/05/29 11:00:13;;;;;;;7.90;1.90;;;;;;;19.07;51.62;99289.66;105119;1271;59733;-65
2022/05/29 11:03:40;;;;;;;7.80;2.00;;;;;;;19.60;50.79;99291.77;104856;1271;71397;-62
2022/05/29 11:06:58;;;;;;;7.20;1.90;;;;;;;20.82;48.57;99292.32;104872;1271;69960;-64
2022/05/29 11:10:23;;;;;;;5.90;1.60;;;;;;;21.28;46.57;99296.34;104852;1271;74327;-62
2022/05/29 11:13:55;;;;;;;8.00;1.80;;;;;;;21.29;46.68;99289.96;104869;1271;59699;-61
2022/05/29 11:17:07;;;;;;;6.80;1.80;;;;;;;21.16;46.60;99292.50;104843;1271;61059;-62
2022/05/29 11:20:42;;;;;;;6.80;1.80;;;;;;;20.64;47.27;99302.97;104936;1271;73867;-62
2022/05/29 11:24:20;;;;;;;6.80;1.90;;;;;;;19.87;49.51;99305.05;104824;1271;68736;-62
2022/05/29 11:27:41;;;;;;;8.00;2.10;;;;;;;19.02;52.77;99305.69;104449;1277;74452;-62
2022/05/29 11:30:55;;;;;;;7.80;2.60;;;;;;;18.26;55.88;99319.70;104296;1278;59827;-64
2022/05/29 11:34:30;;;;;;;7.90;2.30;;;;;;;17.55;57.91;99318.45;104404;1279;59864;-63
2022/05/29 11:37:58;;;;;;;5.70;2.10;;;;;;;16.91;60.19;99322.27;104270;1278;74769;-67
2022/05/29 11:40:52;;;;;;;7.70;2.30;;;;;;;16.36;62.74;99329.58;104297;1278;69435;-63
2022/05/29 11:44:40;;;;;;;7.00;2.20;;;;;;;16.01;64.60;99335.48;104353;1279;74492;-64
2022/05/29 11:51:15;;;;;;;6.70;2.80;;;;;;;15.42;67.05;99345.36;103668;1284;60281;-63
2022/05/29 11:54:30;;;;;;;7.20;2.60;;;;;;;15.25;67.21;99344.63;103920;1285;72780;-62
2022/05/29 11:57:55;;;;;;;7.20;2.70;;;;;;;15.15;68.18;99341.75;103723;1285;68708;-64
2022/05/29 12:01:11;;;;;;;7.60;2.80;;;;;;;15.14;69.36;99341.38;103646;1285;73736;-65
2022/05/29 12:04:34;;;;;;;7.00;2.90;;;;;;;15.13;68.89;99344.89;104098;1279;59977;-65
2022/05/29 12:07:33;;;;;;;8.00;3.10;;;;;;;15.13;69.42;99343.05;104199;1279;59555;-64
2022/05/29 12:10:27;;;;;;;8.10;3.50;;;;;;;15.18;70.38;99347.54;104258;1279;74825;-65
2022/05/29 12:13:17;;;;;;;7.60;3.10;;;;;;;15.19;70.15;99346.23;104169;1280;67648;-63
2022/05/29 12:16:12;;;;;;;13.90;3.50;;;;;;;15.20;69.90;99340.52;103475;1279;1003108;-63
2022/05/29 12:19:03;;;;;;;9.40;3.30;;;;;;;15.20;70.70;99346.83;104293;1279;63366;-68
2022/05/29 12:22:09;;;;;;;8.60;3.10;;;;;;;15.18;69.68;99351.48;104200;1279;60206;-65
2022/05/29 12:24:57;;;;;;;8.20;2.50;;;;;;;15.18;67.32;99352.61;104902;1271;73773;-65
2022/05/29 12:27:45;;;;;;;6.00;2.10;;;;;;;15.24;65.86;99350.98;104775;1271;69559;-64
2022/05/29 12:30:45;;;;;;;6.50;1.80;;;;;;;15.39;63.60;99354.45;104778;1271;74432;-65
2022/05/29 12:33:32;;;;;;;7.00;1.90;;;;;;;15.61;63.12;99357.69;104737;1274;59565;-64
2022/05/29 12:36:47;;;;;;;7.70;1.90;;;;;;;15.83;60.66;99359.73;104885;1271;61436;-65
2022/05/29 12:40:04;;;;;;;8.10;2.90;;;;;;;16.04;58.67;99360.20;105037;1271;74628;-64
2022/05/29 12:43:19;;;;;;;6.20;2.10;;;;;;;16.36;58.35;99359.37;104799;1271;68548;-64
2022/05/29 12:46:28;;;;;;;6.60;1.80;;;;;;;16.66;56.48;99360.71;104867;1271;74427;-64
2022/05/29 12:49:59;;;;;;;5.40;1.60;;;;;;;16.92;55.42;99361.86;105082;1271;59669;-65
2022/05/29 12:52:52;;;;;;;6.20;1.70;;;;;;;17.08;53.69;99358.45;104318;1280;60512;-67
2022/05/29 12:56:09;;;;;;;6.90;1.80;;;;;;;17.11;53.74;99363.13;104620;1278;74171;-65
2022/05/29 12:59:20;;;;;;;5.80;1.70;;;;;;;17.16;52.81;99363.36;104673;1280;68519;-68
2022/05/29 13:02:25;;;;;;;5.90;1.60;;;;;;;17.24;53.19;99367.87;104528;1280;73361;-64
2022/05/29 13:05:36;;;;;;;5.60;1.50;;;;;;;17.32;53.89;99372.58;104410;1278;59623;-66
2022/05/29 13:09:13;;;;;;;5.90;1.70;;;;;;;17.38;53.63;99375.36;104271;1277;59970;-64
2022/05/29 13:12:07;;;;;;;6.60;1.50;;;;;;;17.20;53.88;99371.20;104545;1278;74635;-63
2022/05/29 13:14:58;;;;;;;6.80;1.70;;;;;;;17.02;55.13;99378.30;104341;1277;68712;-65
2022/05/29 13:17:57;;;;;;;6.20;1.90;;;;;;;16.71;56.71;99381.91;104227;1278;74384;-63
2022/05/29 13:21:20;;;;;;;5.50;1.80;;;;;;;16.43;59.14;99383.18;104638;1277;59757;-63
2022/05/29 13:24:16;;;;;;;8.10;2.50;;;;;;;16.14;61.61;99385.16;104358;1278;60815;-63
2022/05/29 13:27:09;;;;;;;7.00;2.20;;;;;;;15.90;63.76;99385.64;104333;1280;72282;-62
2022/05/29 13:30:03;;;;;;;7.90;1.80;;;;;;;15.70;64.23;99387.08;104672;1271;67004;-62
2022/05/29 13:33:29;;;;;;;14.50;6.90;;;;;;;15.55;65.17;99386.41;104734;1272;72738;-61
2022/05/29 13:36:46;;;;;;;7.80;2.60;;;;;;;15.37;65.59;99387.98;104793;1271;59771;-62
2022/05/29 13:40:30;;;;;;;7.10;2.70;;;;;;;15.16;66.95;99389.54;104945;1274;61063;-63
2022/05/29 13:43:20;;;;;;;7.10;2.90;;;;;;;14.96;68.60;99391.62;104874;1271;74627;-65
2022/05/29 13:46:20;;;;;;;6.80;2.30;;;;;;;14.90;69.71;99396.84;104918;1271;68430;-66
2022/05/29 13:49:22;;;;;;;7.80;2.70;;;;;;;14.88;70.57;99399.51;104956;1271;74632;-63
2022/05/29 13:52:09;;;;;;;7.50;2.70;;;;;;;14.93;71.60;99400.19;104901;1271;59770;-64
2022/05/29 13:55:10;;;;;;;7.90;2.70;;;;;;;15.07;72.27;99393.15;105070;1271;59648;-63
2022/05/29 14:04:56;;;;;;;7.70;2.80;;;;;;;15.95;69.85;99396.00;104832;1271;73713;-64
2022/05/29 14:08:17;;;;;;;6.60;2.20;;;;;;;16.26;68.15;99394.67;105248;1271;59716;-64
2022/05/29 14:11:04;;;;;;;7.10;2.60;;;;;;;16.36;68.02;99402.00;104778;1271;59674;-63
2022/05/29 14:13:53;;;;;;;6.80;2.50;;;;;;;16.29;67.37;99400.94;104809;1271;74795;-63
2022/05/29 14:16:47;;;;;;;8.70;2.80;;;;;;;16.21;66.99;99404.60;104812;1271;69744;-66
2022/05/29 14:20:08;;;;;;;6.30;2.30;;;;;;;16.06;64.41;99408.79;104918;1271;73291;-63
2022/05/29 14:23:21;;;;;;;7.50;2.30;;;;;;;15.90;64.24;99415.77;104812;1271;59749;-62
2022/05/29 14:26:58;;;;;;;5.90;2.30;;;;;;;15.72;64.91;99414.56;105032;1271;59818;-64